Terminal Aerodrome Forecast
Issued by NWS

Home | Current Version | Previous Version | Text Only | Print | Product List | Glossary On
Versions: 1 2 3 4 5 6 7 8 9 10 11 12 13 14
366
FTUS46 KHNX 131723
TAFBFL
TAF
KBFL 131723Z 1318/1418 VRB04KT 4SM HZ SCT200
     FM132000 33006KT 5SM HZ SKC
     FM140300 VRB04KT 4SM HZ SKC=

USA.gov is the U.S. government's official web portal to all federal, state and local government web resources and services.